This is the latest recevied weather packets stored in our database for station/object KB3CAT. If no packets are shown the sender has not sent any weather packets the latest 10 day(s).
| Time | Temp. | Humidity | Pressure | Rain* | Wind** | Luminosity | Snow |
|---|---|---|---|---|---|---|---|
| 1777612996 | 3.89° C | 86% | 1013.6 hPa | 0 mm | - | - | - |
| 1777612396 | 3.89° C | 83% | 1013.4 hPa | 0 mm | - | - | - |
| 1777611796 | 4.44° C | 81% | 1013.5 hPa | 0 mm | - | - | - |
| 1777608796 | 6.11° C | 76% | 1013 hPa | 0 mm | - | - | - |
| 1777607616 | 6.67° C | 76% | 1013 hPa | 0 mm | - | - | - |
| 1777605196 | 6.67° C | 76% | 1013 hPa | 0 mm | - | - | - |
| 1777604596 | 6.67° C | 77% | 1013.1 hPa | 0 mm | - | - | - |
| 1777603996 | 6.67° C | 77% | 1013.1 hPa | 0 mm | - | - | - |
| 1777599196 | 9.44° C | 68% | 1012.7 hPa | 0 mm | - | - | - |
| 1777595617 | 10° C | 67% | 1012 hPa | 0 mm | - | - | - |
| 1777590196 | 11.11° C | 66% | 1011.1 hPa | 0 mm | - | - | - |
| 1777587796 | 12.22° C | 64% | 1010.4 hPa | 0 mm | - | - | - |
| 1777586597 | 12.78° C | 64% | 1009.9 hPa | 0 mm | - | - | - |
| 1777583596 | 12.22° C | 76% | 1009.6 hPa | 1.02 mm | - | - | - |
| 1777582396 | 11.11° C | 76% | 1009.4 hPa | 1.02 mm | - | - | - |
| 1777581797 | 12.22° C | 71% | 1009.4 hPa | 0.51 mm | - | - | - |
| 1777579417 | 14.44° C | 65% | 1008.5 hPa | 0 mm | - | - | - |
| 1777572216 | 17.22° C | 50% | 1007.4 hPa | 0 mm | - | - | - |
| 1777567436 | 15.56° C | 57% | 1008.2 hPa | 0 mm | - | - | - |
| 1777566796 | 15.56° C | 57% | 1008.3 hPa | 0 mm | - | - | - |
| 1777566196 | 15.56° C | 56% | 1008.4 hPa | 0 mm | - | - | - |
| 1777560196 | 14.44° C | 67% | 1008.8 hPa | 0 mm | - | - | - |
| 1777557796 | 14.44° C | 70% | 1008.4 hPa | 0 mm | - | - | - |
| 1777556017 | 13.33° C | 73% | 1008.1 hPa | 0 mm | - | - | - |
| 1777555396 | 12.78° C | 74% | 1008.2 hPa | 0 mm | - | - | - |
* Rain latest hour (hover to see other rain measurements)
** Current wind speed in m/s (hover to see current wind gust speed)